Time;durP1;ratioP1;P1;durP2;ratioP2;P2;SDS_P1;SDS_P2;PMS_P1;PMS_P2;Temp;Humidity;BMP_temperature;BMP_pressure;BME280_temperature;BME280_humidity;BME280_pressure;Samples;Min_cycle;Max_cycle;Signal;HPM_P1;HPM_P2
2022/01/06 00:01:55;;;;;;;;;31.25;25.25;;;;;21.89;43.91;101070.91;6319859;22;45211;-73
2022/01/06 00:04:21;;;;;;;;;28.00;24.00;;;;;21.88;43.79;101062.94;6319320;22;45219;-73
2022/01/06 00:06:46;;;;;;;;;30.00;24.50;;;;;21.88;44.42;101071.78;6319736;22;45226;-73
2022/01/06 00:09:15;;;;;;;;;29.00;23.75;;;;;21.86;43.96;101073.63;6318940;22;45187;-73
2022/01/06 00:11:41;;;;;;;;;29.00;25.25;;;;;21.88;43.82;101073.59;6373982;22;45401;-73
2022/01/06 00:14:24;;;;;;;;;24.25;23.00;;;;;21.88;44.10;101077.09;6345817;22;45517;-73
2022/01/06 00:24:45;;;;;;;;;29.25;25.75;;;;;21.83;43.49;101063.13;6350020;22;45381;-73
2022/01/06 00:27:11;;;;;;;;;27.00;24.25;;;;;21.82;43.63;101071.16;6318664;22;46190;-73
2022/01/06 00:29:36;;;;;;;;;29.25;25.00;;;;;21.85;43.61;101076.34;6345054;22;45292;-73
2022/01/06 00:32:02;;;;;;;;;23.50;22.00;;;;;21.81;43.40;101072.94;6319002;22;45402;-73
2022/01/06 00:34:27;;;;;;;;;35.00;24.75;;;;;21.80;43.82;101072.97;6318907;22;45424;-73
2022/01/06 00:36:53;;;;;;;;;30.25;24.75;;;;;21.80;43.88;101087.09;6318636;22;46822;-73
2022/01/06 00:39:18;;;;;;;;;32.25;28.75;;;;;21.83;43.78;101096.78;6344589;22;45378;-72
2022/01/06 00:41:44;;;;;;;;;24.00;22.25;;;;;21.78;43.80;101094.25;6319076;22;45493;-73
2022/01/06 00:44:09;;;;;;;;;26.75;24.50;;;;;21.78;43.70;101094.25;6318563;22;45528;-73
2022/01/06 00:46:35;;;;;;;;;25.50;24.25;;;;;21.79;43.22;101092.47;6345520;22;46079;-73
2022/01/06 00:49:01;;;;;;;;;30.00;26.00;;;;;21.79;43.58;101101.31;6345506;22;45186;-73
2022/01/06 00:51:26;;;;;;;;;26.75;22.50;;;;;21.75;43.80;101090.84;6319772;22;45197;-73
2022/01/06 00:53:52;;;;;;;;;26.50;25.75;;;;;21.77;43.30;101094.31;6373739;22;45143;-73
2022/01/06 00:56:17;;;;;;;;;32.25;26.00;;;;;21.75;43.14;101096.16;6344935;22;47567;-73
2022/01/06 00:58:42;;;;;;;;;25.50;23.00;;;;;21.77;43.40;101096.97;6318599;22;45686;-73
2022/01/06 01:01:08;;;;;;;;;27.25;25.50;;;;;21.76;43.04;101097.91;6318785;22;52499;-73
2022/01/06 01:03:33;;;;;;;;;31.00;26.25;;;;;21.75;43.34;101110.31;6344731;22;45290;-73
2022/01/06 01:05:59;;;;;;;;;25.00;22.00;;;;;21.73;43.42;101106.84;6373391;22;54793;-73
2022/01/06 01:08:25;;;;;;;;;24.50;23.50;;;;;21.73;43.28;101109.50;6373512;22;45213;-73
2022/01/06 01:10:52;;;;;;;;;26.00;22.50;;;;;21.71;43.24;101098.91;6373408;22;45450;-73
2022/01/06 01:13:27;;;;;;;;;25.25;22.75;;;;;21.75;43.16;101104.13;6345354;22;45270;-73
2022/01/06 01:15:54;;;;;;;;;23.50;21.50;;;;;21.72;42.99;101090.03;6346362;22;47891;-73
2022/01/06 01:18:21;;;;;;;;;24.75;23.50;;;;;21.72;42.97;101094.47;6345240;22;45349;-73
2022/01/06 01:20:47;;;;;;;;;27.25;24.75;;;;;21.73;43.39;101096.22;6318897;22;45229;-73
2022/01/06 01:23:13;;;;;;;;;27.25;22.50;;;;;21.73;43.36;101096.22;6319076;22;45324;-73
2022/01/06 01:25:38;;;;;;;;;25.50;23.25;;;;;21.73;43.03;101096.22;6318464;22;48121;-73
2022/01/06 01:28:04;;;;;;;;;21.75;20.25;;;;;21.72;43.01;101103.31;6318922;22;50662;-73
2022/01/06 01:30:32;;;;;;;;;25.50;24.00;;;;;21.72;42.97;101107.78;6345788;22;45195;-73
2022/01/06 01:32:59;;;;;;;;;25.00;21.00;;;;;21.72;42.68;101105.13;6319563;22;45376;-73
2022/01/06 01:35:31;;;;;;;;;28.25;21.00;;;;;21.73;42.78;101109.50;6318470;22;47105;-73
2022/01/06 01:37:57;;;;;;;;;32.50;27.25;;;;;21.71;42.78;101100.69;6321033;22;45250;-73
2022/01/06 01:40:22;;;;;;;;;25.25;22.75;;;;;21.69;42.96;101100.75;6318458;22;45335;-73
2022/01/06 01:42:47;;;;;;;;;26.25;23.25;;;;;21.69;42.50;101108.72;6373363;22;51502;-73
2022/01/06 01:45:13;;;;;;;;;25.50;19.25;;;;;21.69;42.70;101105.19;6318190;22;60483;-73
2022/01/06 01:47:42;;;;;;;;;27.25;23.75;;;;;21.68;42.81;101109.63;6318610;22;45365;-73
2022/01/06 01:50:12;;;;;;;;;26.25;21.50;;;;;21.68;42.69;101122.91;6319189;22;45301;-73
2022/01/06 01:52:39;;;;;;;;;23.25;20.50;;;;;21.67;42.93;101115.00;6319157;22;45334;-73
2022/01/06 01:55:05;;;;;;;;;27.50;24.25;;;;;21.65;42.65;101117.69;6319186;22;45298;-73
2022/01/06 01:57:30;;;;;;;;;27.50;21.50;;;;;21.64;42.61;101117.75;6318772;22;45235;-73
2022/01/06 01:59:56;;;;;;;;;24.50;22.75;;;;;21.64;42.97;101125.72;6319346;22;45130;-73
2022/01/06 02:02:21;;;;;;;;;32.75;24.25;;;;;21.62;42.33;101128.41;6318613;22;54767;-73
2022/01/06 02:04:49;;;;;;;;;22.25;20.00;;;;;21.62;42.91;101132.84;6344503;22;47041;-73
2022/01/06 02:07:15;;;;;;;;;20.75;20.50;;;;;21.62;42.50;101124.88;6320116;22;45270;-73
2022/01/06 02:09:40;;;;;;;;;23.25;21.50;;;;;21.61;42.30;101131.09;6319017;22;45183;-73
2022/01/06 02:12:06;;;;;;;;;22.25;21.00;;;;;21.61;42.53;101136.41;6318087;22;58782;-73
2022/01/06 02:14:34;;;;;;;;;23.75;21.75;;;;;21.61;42.77;101137.28;6318315;22;47277;-73
2022/01/06 02:16:59;;;;;;;;;23.75;22.25;;;;;21.62;42.84;101132.84;6345083;22;45239;-73
2022/01/06 02:19:24;;;;;;;;;22.50;20.75;;;;;21.62;42.63;101144.34;6344639;22;47087;-73
2022/01/06 02:21:50;;;;;;;;;26.00;23.75;;;;;21.61;42.67;101131.97;6317711;22;60501;-73
2022/01/06 02:24:15;;;;;;;;;24.50;23.75;;;;;21.60;42.73;101127.59;6343996;22;46987;-73
2022/01/06 02:26:41;;;;;;;;;21.50;19.75;;;;;21.60;42.14;101130.25;6345048;22;45214;-73
2022/01/06 02:29:08;;;;;;;;;23.50;22.50;;;;;21.62;42.49;101127.53;6318654;22;45830;-72
2022/01/06 02:31:43;;;;;;;;;20.50;19.25;;;;;21.61;42.37;101125.78;6320714;22;45433;-73
2022/01/06 02:34:09;;;;;;;;;24.25;20.00;;;;;21.60;42.16;101140.88;6347000;22;45304;-73
2022/01/06 02:36:34;;;;;;;;;19.25;17.75;;;;;21.60;42.23;101134.69;6320297;22;45220;-73
2022/01/06 02:39:00;;;;;;;;;22.50;19.50;;;;;21.61;42.58;101136.41;6320407;22;45477;-73
2022/01/06 02:41:25;;;;;;;;;22.00;19.50;;;;;21.60;42.36;101129.38;6319794;22;45641;-72
2022/01/06 02:43:51;;;;;;;;;21.50;17.75;;;;;21.61;42.23;101139.06;6319749;22;45237;-73
2022/01/06 02:46:16;;;;;;;;;18.00;18.00;;;;;21.61;42.19;101136.41;6320020;22;45205;-73
2022/01/06 02:48:42;;;;;;;;;21.50;19.50;;;;;21.60;42.01;101137.34;6320153;22;45683;-73
2022/01/06 02:51:07;;;;;;;;;22.50;19.50;;;;;21.58;42.26;101131.22;6319412;22;45597;-73
2022/01/06 02:53:32;;;;;;;;;22.50;18.25;;;;;21.58;42.45;101129.44;6345531;22;46987;-73
2022/01/06 02:55:58;;;;;;;;;21.75;20.25;;;;;21.58;42.00;101133.88;6318776;22;49114;-73
2022/01/06 02:58:23;;;;;;;;;21.25;18.25;;;;;21.56;41.95;101136.56;6319608;22;45200;-73
2022/01/06 03:00:49;;;;;;;;;23.25;19.75;;;;;21.55;42.03;101137.50;6319028;22;45281;-73
2022/01/06 03:03:14;;;;;;;;;18.50;17.00;;;;;21.55;42.10;101139.28;6319032;22;47675;-73
2022/01/06 03:05:40;;;;;;;;;26.00;19.25;;;;;21.55;42.13;101152.56;6319918;22;45392;-73
2022/01/06 03:08:05;;;;;;;;;18.75;17.75;;;;;21.56;42.13;101156.97;6319582;22;45240;-73
2022/01/06 03:10:35;;;;;;;;;19.50;17.00;;;;;21.53;42.05;101155.25;6319018;22;45324;-73
2022/01/06 03:13:01;;;;;;;;;19.00;16.75;;;;;21.53;41.84;101159.69;6346166;22;47470;-73
2022/01/06 03:15:26;;;;;;;;;20.50;19.50;;;;;21.52;42.18;101158.81;6319425;22;45228;-73
2022/01/06 03:17:56;;;;;;;;;19.25;17.50;;;;;21.52;42.44;101164.13;6319076;22;45615;-73
2022/01/06 03:20:23;;;;;;;;;19.50;16.25;;;;;21.51;42.07;101161.53;6319140;22;45514;-73
2022/01/06 03:22:49;;;;;;;;;22.75;19.50;;;;;21.53;42.04;101168.53;6319542;22;47688;-73
2022/01/06 03:25:15;;;;;;;;;17.25;15.50;;;;;21.53;42.27;101173.81;6319720;22;45188;-73
2022/01/06 03:27:41;;;;;;;;;22.75;19.50;;;;;21.54;42.27;101169.38;6346015;22;45300;-73
2022/01/06 03:30:09;;;;;;;;;17.50;17.25;;;;;21.53;42.39;101165.88;6319531;22;45459;-73
2022/01/06 03:32:34;;;;;;;;;21.00;17.25;;;;;21.54;42.04;101174.69;6346567;22;45286;-73
2022/01/06 03:35:00;;;;;;;;;18.50;18.00;;;;;21.53;42.42;101175.63;6318885;22;45558;-73
2022/01/06 03:37:26;;;;;;;;;16.50;15.75;;;;;21.53;41.93;101176.47;6345482;22;50905;-73
2022/01/06 03:39:51;;;;;;;;;17.50;16.75;;;;;21.53;41.97;101176.47;6345144;22;45150;-73
2022/01/06 03:42:16;;;;;;;;;16.75;15.00;;;;;21.52;42.08;101182.72;6345151;22;63144;-73
2022/01/06 03:44:42;;;;;;;;;19.50;16.25;;;;;21.53;42.30;101175.63;6320073;22;45315;-73
2022/01/06 03:47:07;;;;;;;;;19.50;16.50;;;;;21.53;41.89;101176.47;6319886;22;45430;-73
2022/01/06 03:49:33;;;;;;;;;19.75;18.25;;;;;21.51;42.11;101173.00;6319370;22;48046;-73
2022/01/06 03:51:58;;;;;;;;;19.25;16.75;;;;;21.52;42.00;101163.25;6345514;22;47282;-73
2022/01/06 03:54:23;;;;;;;;;19.75;16.50;;;;;21.51;42.04;101173.00;6318598;22;59314;-73
2022/01/06 03:56:49;;;;;;;;;18.00;16.50;;;;;21.45;42.15;101168.75;6345760;22;45234;-73
2022/01/06 03:59:17;;;;;;;;;18.50;16.25;;;;;21.51;41.90;101180.09;6319236;22;45272;-73
2022/01/06 04:01:43;;;;;;;;;17.25;17.25;;;;;21.50;41.54;101189.00;6345806;22;45325;-73
2022/01/06 04:04:09;;;;;;;;;16.25;13.75;;;;;21.50;42.25;101181.03;6345706;22;45349;-73
2022/01/06 04:06:35;;;;;;;;;18.00;14.00;;;;;21.48;42.12;101182.88;6346073;22;45274;-73
2022/01/06 04:09:00;;;;;;;;;15.75;15.75;;;;;21.47;42.24;101186.44;6345503;22;45168;-73
2022/01/06 04:11:26;;;;;;;;;17.75;15.25;;;;;21.47;41.86;101183.78;6344840;22;49361;-73
2022/01/06 04:13:51;;;;;;;;;17.25;15.50;;;;;21.47;41.52;101183.78;6318878;22;53633;-73
2022/01/06 04:16:17;;;;;;;;;14.25;13.00;;;;;21.44;42.05;101182.06;6319183;22;45228;-73
2022/01/06 04:18:43;;;;;;;;;17.75;17.00;;;;;21.43;41.90;101186.50;6345850;22;45454;-73
2022/01/06 04:21:09;;;;;;;;;15.75;13.00;;;;;21.42;42.01;101184.78;6345069;22;47635;-73
2022/01/06 04:23:34;;;;;;;;;16.50;13.75;;;;;21.42;42.26;101179.47;6319348;22;45133;-73
2022/01/06 04:26:00;;;;;;;;;12.75;11.50;;;;;21.44;41.78;101182.94;6318237;22;45129;-73
2022/01/06 04:28:25;;;;;;;;;15.50;12.50;;;;;21.45;42.03;101182.00;6345383;22;45310;-73
2022/01/06 04:30:51;;;;;;;;;14.50;12.50;;;;;21.39;41.58;101178.69;6319369;22;45727;-73
2022/01/06 04:33:16;;;;;;;;;16.50;14.00;;;;;21.45;41.88;101189.97;6319285;22;45385;-73
2022/01/06 04:35:41;;;;;;;;;10.75;10.50;;;;;21.45;41.97;101189.97;6319131;22;45300;-73
2022/01/06 04:38:07;;;;;;;;;12.00;11.75;;;;;21.45;42.07;101181.16;6318582;22;61862;-73
2022/01/06 04:40:32;;;;;;;;;12.25;12.00;;;;;21.47;41.96;101183.78;6318089;22;61117;-73
2022/01/06 04:42:58;;;;;;;;;15.75;13.50;;;;;21.47;41.70;101175.81;6319065;22;55464;-73
2022/01/06 04:45:23;;;;;;;;;13.50;13.50;;;;;21.47;41.78;101178.47;6345248;22;45303;-72
2022/01/06 04:47:48;;;;;;;;;13.75;11.50;;;;;21.46;41.51;101182.91;6319209;22;45453;-72
2022/01/06 04:50:14;;;;;;;;;14.50;12.25;;;;;21.47;41.82;101179.34;6318196;22;53274;-71
2022/01/06 04:52:39;;;;;;;;;14.25;13.00;;;;;21.47;41.33;101181.13;6318151;22;46206;-73
2022/01/06 04:55:05;;;;;;;;;17.00;14.75;;;;;21.43;41.79;101175.88;6344907;22;45219;-73
2022/01/06 04:57:31;;;;;;;;;14.50;14.50;;;;;21.47;41.57;101173.16;6344894;22;45176;-71
2022/01/06 05:00:05;;;;;;;;;13.50;13.50;;;;;21.47;41.43;101182.00;6344422;22;47074;-71
2022/01/06 05:02:30;;;;;;;;;18.00;15.50;;;;;21.45;41.68;101178.50;6319134;22;45357;-71
2022/01/06 05:04:56;;;;;;;;;14.50;11.50;;;;;21.48;41.44;101183.72;6344610;22;45239;-71
2022/01/06 05:07:21;;;;;;;;;17.25;13.00;;;;;21.43;41.29;101177.66;6373332;22;54524;-71
2022/01/06 05:09:47;;;;;;;;;14.00;11.00;;;;;21.48;41.04;101193.50;6344569;22;46303;-73
2022/01/06 05:12:12;;;;;;;;;9.25;8.25;;;;;21.45;41.44;101197.94;6318857;22;45180;-71
2022/01/06 05:14:39;;;;;;;;;13.25;11.75;;;;;21.49;41.59;101208.50;6345728;22;45107;-71
2022/01/06 05:17:05;;;;;;;;;13.75;11.50;;;;;21.48;41.48;101209.41;6345725;22;45227;-72
2022/01/06 05:19:30;;;;;;;;;18.00;14.25;;;;;21.50;41.35;101211.13;6345013;22;46274;-71
2022/01/06 05:21:56;;;;;;;;;13.50;12.50;;;;;21.50;41.65;101210.25;6373160;22;56650;-71
2022/01/06 05:24:23;;;;;;;;;12.25;10.50;;;;;21.51;40.99;101211.97;6373492;22;45287;-71
2022/01/06 05:26:48;;;;;;;;;12.50;11.25;;;;;21.53;41.33;101207.50;6373359;22;45440;-70
2022/01/06 05:29:14;;;;;;;;;9.75;9.75;;;;;21.53;41.57;101210.16;6373486;22;46298;-71
2022/01/06 05:31:39;;;;;;;;;11.00;7.25;;;;;21.54;41.40;101203.91;6345240;22;45340;-71
2022/01/06 05:34:05;;;;;;;;;11.25;10.00;;;;;21.55;41.58;101211.88;6345019;22;45352;-71
2022/01/06 05:36:31;;;;;;;;;13.00;10.75;;;;;21.56;41.40;101218.03;6319367;22;45559;-71
2022/01/06 05:38:56;;;;;;;;;13.25;12.00;;;;;21.56;40.97;101216.25;6318621;22;47868;-71
2022/01/06 05:41:22;;;;;;;;;15.00;10.50;;;;;21.59;41.74;101225.91;6318464;22;45244;-71
2022/01/06 05:43:48;;;;;;;;;15.75;12.00;;;;;21.58;41.10;101224.19;6345088;22;45195;-71
2022/01/06 05:46:13;;;;;;;;;14.00;11.75;;;;;21.60;41.40;101225.00;6319411;22;45350;-71
2022/01/06 05:48:39;;;;;;;;;10.00;10.00;;;;;21.59;41.56;101226.78;6318553;22;48019;-71
2022/01/06 05:51:04;;;;;;;;;9.50;9.50;;;;;21.60;41.29;101225.88;6318831;22;45508;-71
2022/01/06 05:53:30;;;;;;;;;17.25;13.75;;;;;21.60;41.47;101236.50;6319221;22;45235;-72
2022/01/06 05:55:56;;;;;;;;;13.75;12.75;;;;;21.63;41.76;101231.13;6319883;22;52657;-76
2022/01/06 05:58:21;;;;;;;;;15.25;11.50;;;;;21.61;41.95;101227.59;6344926;22;48202;-75
2022/01/06 06:00:46;;;;;;;;;12.00;11.75;;;;;21.67;43.55;101223.91;6346557;22;55758;-77
2022/01/06 06:03:12;;;;;;;;;16.00;12.00;;;;;21.74;43.43;101230.78;6318483;22;45381;-74
2022/01/06 06:05:40;;;;;;;;;14.50;12.00;;;;;21.80;42.71;101222.63;6344499;22;57927;-73
2022/01/06 06:08:06;;;;;;;;;17.25;13.50;;;;;21.85;43.28;101228.69;6319706;22;48425;-76
2022/01/06 06:10:31;;;;;;;;;12.75;12.25;;;;;21.89;43.28;101243.63;6318049;22;57823;-73
2022/01/06 06:12:56;;;;;;;;;13.00;12.00;;;;;21.92;43.18;101240.88;6345090;22;45108;-73
2022/01/06 06:15:22;;;;;;;;;15.25;12.75;;;;;21.95;42.45;101247.88;6317797;22;66927;-74
2022/01/06 06:17:47;;;;;;;;;12.75;9.50;;;;;21.98;42.50;101251.34;6317677;22;60673;-73
2022/01/06 06:20:13;;;;;;;;;16.00;13.25;;;;;21.99;42.50;101253.06;6318236;22;45810;-75
2022/01/06 06:22:38;;;;;;;;;16.00;13.25;;;;;22.01;42.24;101261.88;6345545;22;45262;-74
2022/01/06 06:25:04;;;;;;;;;15.25;12.75;;;;;22.02;42.69;101258.28;6318505;22;53704;-75
2022/01/06 06:27:30;;;;;;;;;14.50;13.00;;;;;22.01;42.13;101268.97;6344515;22;47007;-77
2022/01/06 06:29:55;;;;;;;;;14.50;12.75;;;;;21.99;42.25;101261.06;6345408;22;45219;-76
2022/01/06 06:32:20;;;;;;;;;12.25;12.25;;;;;21.99;42.40;101260.19;6318474;22;45273;-74
2022/01/06 06:34:46;;;;;;;;;11.25;11.00;;;;;21.98;42.25;101261.09;6318355;22;51829;-74
2022/01/06 06:37:11;;;;;;;;;12.25;10.75;;;;;21.97;41.87;101270.84;6291627;22;56043;-73
2022/01/06 06:39:37;;;;;;;;;16.25;12.00;;;;;21.98;41.98;101269.94;6317417;22;62456;-74
2022/01/06 06:42:02;;;;;;;;;15.75;12.00;;;;;21.99;42.28;101278.78;6318331;22;45226;-73
2022/01/06 06:44:28;;;;;;;;;12.50;12.50;;;;;21.97;41.49;101286.78;6344611;22;45478;-74
2022/01/06 06:46:53;;;;;;;;;16.75;11.50;;;;;21.96;41.59;101282.38;6317208;22;64517;-74
2022/01/06 06:49:18;;;;;;;;;11.50;10.25;;;;;21.95;41.14;101285.97;6344255;22;45280;-73
2022/01/06 06:51:44;;;;;;;;;16.25;14.75;;;;;21.94;41.47;101278.03;6318756;22;45281;-73
2022/01/06 06:54:09;;;;;;;;;14.25;12.00;;;;;21.91;41.34;101272.81;6317222;22;62043;-73
2022/01/06 06:56:35;;;;;;;;;9.75;9.50;;;;;21.91;41.18;101279.00;6318627;22;46248;-73
2022/01/06 06:59:00;;;;;;;;;16.25;10.50;;;;;21.91;41.47;101278.13;6344367;22;45239;-74
2022/01/06 07:01:26;;;;;;;;;15.75;13.50;;;;;21.91;41.54;101278.13;6317975;22;45658;-73
2022/01/06 07:03:51;;;;;;;;;15.75;14.75;;;;;21.89;41.34;101275.53;6318091;22;45481;-73
2022/01/06 07:06:16;;;;;;;;;14.50;11.25;;;;;21.93;41.53;101285.13;6317411;22;47227;-72
2022/01/06 07:08:42;;;;;;;;;14.75;11.75;;;;;21.93;41.39;101287.81;6372904;22;45077;-72
2022/01/06 07:11:07;;;;;;;;;14.75;13.00;;;;;21.92;41.07;101288.72;6317216;22;45689;-72
2022/01/06 07:13:36;;;;;;;;;13.75;11.25;;;;;21.89;41.20;101291.47;6344030;22;45590;-72
2022/01/06 07:16:01;;;;;;;;;13.50;12.75;;;;;21.87;41.29;101287.09;6319620;22;45349;-72
2022/01/06 07:18:26;;;;;;;;;17.75;13.25;;;;;21.86;41.77;101291.53;6293087;22;45749;-73
2022/01/06 07:20:52;;;;;;;;;14.50;12.00;;;;;21.83;41.50;101288.97;6346083;22;45279;-72
2022/01/06 07:23:17;;;;;;;;;11.00;10.75;;;;;21.83;41.79;101294.28;6345801;22;45725;-73
2022/01/06 07:25:43;;;;;;;;;15.00;12.00;;;;;21.84;41.95;101297.81;6345874;22;45413;-72
2022/01/06 07:28:08;;;;;;;;;12.00;10.00;;;;;21.82;41.92;101292.56;6319323;22;45193;-73
2022/01/06 07:30:34;;;;;;;;;10.75;10.00;;;;;21.82;41.63;101289.03;6346198;22;45330;-73
2022/01/06 07:32:59;;;;;;;;;17.00;11.50;;;;;21.81;41.69;101290.81;6319116;22;45384;-72
2022/01/06 07:35:25;;;;;;;;;15.50;12.25;;;;;21.80;41.75;101291.72;6345151;22;47317;-74
2022/01/06 07:37:53;;;;;;;;;14.50;11.00;;;;;21.81;41.28;101301.44;6319246;22;45345;-76
2022/01/06 07:40:19;;;;;;;;;15.00;10.25;;;;;21.81;41.63;101296.13;6345369;22;45300;-74
2022/01/06 07:42:45;;;;;;;;;14.25;10.50;;;;;21.82;41.78;101294.34;6346198;22;45183;-74
2022/01/06 07:45:12;;;;;;;;;13.00;11.00;;;;;21.84;41.57;101298.69;6319203;22;48381;-74
2022/01/06 07:47:53;;;;;;;;;12.00;11.50;;;;;21.86;41.70;101304.81;6320415;22;45369;-74
2022/01/06 07:50:19;;;;;;;;;11.00;9.25;;;;;21.86;41.56;101302.16;6325826;22;45381;-73
2022/01/06 07:52:45;;;;;;;;;15.75;10.50;;;;;21.86;41.56;101312.81;6374233;22;45199;-74
2022/01/06 07:55:10;;;;;;;;;15.00;13.00;;;;;21.88;41.26;101315.41;6373796;22;46354;-78
2022/01/06 07:57:35;;;;;;;;;14.75;12.00;;;;;21.83;40.29;101312.91;6318774;22;63483;-79
2022/01/06 08:00:01;;;;;;;;;16.00;12.75;;;;;21.85;40.07;101312.84;6373291;22;54008;-78
2022/01/06 08:02:26;;;;;;;;;15.25;11.25;;;;;21.86;40.20;101315.47;6346198;22;45238;-78
2022/01/06 08:04:51;;;;;;;;;20.50;13.25;;;;;21.85;39.50;101315.50;6370137;22;65090;-80
2022/01/06 08:07:17;;;;;;;;;19.75;14.00;;;;;21.83;39.96;101312.91;6345237;22;58521;-78
2022/01/06 08:09:45;;;;;;;;;16.00;11.00;;;;;21.83;39.94;101307.59;6345868;22;45482;-80
2022/01/06 08:12:10;;;;;;;;;14.00;11.25;;;;;21.83;39.91;101307.59;6320315;22;45387;-80
2022/01/06 08:14:36;;;;;;;;;11.50;10.75;;;;;21.87;39.59;101311.00;6343137;22;45299;-81
2022/01/06 08:17:02;;;;;;;;;14.75;12.50;;;;;21.84;40.13;101301.34;6310391;22;45328;-80
2022/01/06 08:19:27;;;;;;;;;13.00;12.00;;;;;21.85;40.18;101312.84;6371020;22;45211;-81
2022/01/06 08:21:53;;;;;;;;;16.75;12.75;;;;;21.89;40.22;101317.16;6343669;22;45529;-80
2022/01/06 08:24:18;;;;;;;;;13.50;11.00;;;;;21.90;40.29;101318.91;6317727;22;47112;-82
2022/01/06 08:26:47;;;;;;;;;11.00;10.00;;;;;21.90;40.45;101316.25;6317295;22;45290;-81
2022/01/06 08:29:12;;;;;;;;;11.75;11.75;;;;;21.89;40.55;101323.38;6372578;22;45392;-82
2022/01/06 08:31:37;;;;;;;;;14.25;12.00;;;;;21.90;40.61;101327.75;6372165;22;45368;-79
2022/01/06 08:34:03;;;;;;;;;17.25;12.00;;;;;21.89;40.51;101323.38;6317409;22;47114;-83
2022/01/06 08:36:28;;;;;;;;;13.50;11.00;;;;;21.86;40.56;101319.91;6317910;22;45377;-83
2022/01/06 08:38:54;;;;;;;;;12.75;9.00;;;;;21.87;40.61;101322.50;6344270;22;45920;-84
2022/01/06 08:41:19;;;;;;;;;15.75;12.00;;;;;21.92;40.07;101325.94;6318359;22;45363;-88
2022/01/06 08:43:48;;;;;;;;;10.50;10.50;;;;;21.89;40.37;101317.16;6291657;22;53819;-90
2022/01/06 08:46:13;;;;;;;;;14.50;10.25;;;;;21.91;40.34;101320.66;6320215;22;45232;-90
2022/01/06 08:48:39;;;;;;;;;12.00;12.00;;;;;21.93;40.15;101327.66;6319765;22;45176;-88
2022/01/06 08:51:04;;;;;;;;;18.00;12.25;;;;;21.93;40.32;101329.44;6374816;22;48469;-89
2022/01/06 08:53:29;;;;;;;;;10.00;10.00;;;;;21.92;40.17;101328.59;6374072;22;48013;-89
2022/01/06 08:55:55;;;;;;;;;11.75;11.75;;;;;21.92;40.53;101325.06;6320551;22;45245;-93
2022/01/06 08:58:20;;;;;;;;;13.00;11.50;;;;;21.95;40.88;101336.47;6319220;22;45761;-91
2022/01/06 09:00:46;;;;;;;;;10.25;10.25;;;;;21.93;40.57;101332.09;6319434;22;45315;-87
2022/01/06 09:03:11;;;;;;;;;13.50;9.75;;;;;21.94;40.36;101334.72;6371744;22;45310;-79
2022/01/06 09:05:37;;;;;;;;;9.25;7.25;;;;;21.96;40.55;101335.53;6317562;22;45445;-78
2022/01/06 09:08:06;;;;;;;;;14.50;11.00;;;;;21.96;40.14;101334.66;6317650;22;45447;-78
2022/01/06 09:10:33;;;;;;;;;9.50;9.50;;;;;21.96;40.47;101338.19;6317773;22;45611;-76
2022/01/06 09:13:00;;;;;;;;;10.75;8.25;;;;;21.98;40.94;101346.16;6317906;22;46767;-80
2022/01/06 09:15:25;;;;;;;;;11.75;11.00;;;;;21.95;40.96;101344.44;6317864;22;45287;-79
2022/01/06 09:17:51;;;;;;;;;12.25;11.00;;;;;21.94;40.82;101341.81;6316387;22;51969;-80
2022/01/06 09:20:16;;;;;;;;;12.25;11.50;;;;;21.92;40.85;101338.34;6317179;22;45822;-80
2022/01/06 09:22:42;;;;;;;;;12.50;11.25;;;;;21.91;40.68;101336.59;6344109;22;47820;-78
2022/01/06 09:25:09;;;;;;;;;10.00;10.00;;;;;21.91;41.11;101336.59;6369608;22;45398;-78
2022/01/06 09:27:35;;;;;;;;;12.00;12.00;;;;;21.93;41.01;101348.94;6372123;22;45263;-77
2022/01/06 09:30:06;;;;;;;;;13.00;10.00;;;;;21.95;41.72;101346.22;6344625;22;45338;-77
2022/01/06 09:32:31;;;;;;;;;10.50;9.50;;;;;21.97;42.41;101350.56;6292215;22;47359;-77
2022/01/06 09:34:56;;;;;;;;;12.50;10.50;;;;;21.99;42.66;101354.06;6372100;22;45342;-77
2022/01/06 09:37:25;;;;;;;;;11.00;9.25;;;;;21.97;42.74;101347.91;6371431;22;45357;-76
2022/01/06 09:39:50;;;;;;;;;10.50;9.75;;;;;21.93;43.04;101356.91;6343591;22;45292;-76
2022/01/06 09:42:22;;;;;;;;;13.25;10.50;;;;;21.95;42.53;101363.03;6371888;22;45279;-79
2022/01/06 09:44:51;;;;;;;;;12.50;11.00;;;;;21.92;42.44;101365.78;6372306;22;47006;-78
2022/01/06 09:47:24;;;;;;;;;13.75;10.75;;;;;21.90;42.10;101364.09;6372399;22;45302;-84
2022/01/06 09:49:49;;;;;;;;;12.50;11.50;;;;;21.88;41.94;101361.47;6318655;22;45570;-83
2022/01/06 09:52:15;;;;;;;;;11.00;11.00;;;;;21.86;41.82;101365.94;6317322;22;58825;-84
2022/01/06 09:54:41;;;;;;;;;14.00;11.00;;;;;21.86;42.00;101359.75;6344285;22;45386;-84
2022/01/06 09:57:12;;;;;;;;;10.50;10.00;;;;;21.89;41.79;101376.50;6317315;22;45278;-77
2022/01/06 09:59:41;;;;;;;;;9.25;9.00;;;;;21.86;41.64;101365.06;6371985;22;45431;-80
2022/01/06 10:02:13;;;;;;;;;11.75;11.75;;;;;21.89;41.69;101373.84;6369662;22;47949;-79
2022/01/06 10:04:38;;;;;;;;;12.75;12.50;;;;;21.87;41.78;101367.69;6371585;22;45337;-78
2022/01/06 10:07:05;;;;;;;;;14.25;12.00;;;;;21.90;41.92;101382.69;6344843;22;45260;-78
2022/01/06 10:09:33;;;;;;;;;17.75;12.00;;;;;21.86;41.88;101368.59;6344005;22;45583;-79
2022/01/06 10:11:59;;;;;;;;;10.75;10.00;;;;;21.85;41.95;101369.53;6342686;22;47320;-81
2022/01/06 10:14:32;;;;;;;;;14.50;11.00;;;;;21.85;42.02;101376.63;6342972;22;45281;-80
2022/01/06 10:17:00;;;;;;;;;13.50;10.75;;;;;21.88;42.22;101379.19;6345968;22;45265;-80
2022/01/06 10:19:25;;;;;;;;;12.50;11.00;;;;;21.87;42.59;101375.66;6318628;22;45247;-76
2022/01/06 10:21:57;;;;;;;;;9.75;9.00;;;;;21.84;42.16;101375.75;6344095;22;47958;-81
2022/01/06 10:24:23;;;;;;;;;10.00;8.75;;;;;21.88;42.82;101380.06;6320324;22;45243;-80
2022/01/06 10:27:01;;;;;;;;;12.00;10.25;;;;;21.86;42.51;101373.91;6344569;22;45259;-82
2022/01/06 10:29:29;;;;;;;;;12.25;10.00;;;;;21.87;42.92;101378.31;6317555;22;45401;-83
2022/01/06 10:32:07;;;;;;;;;11.00;9.75;;;;;21.87;42.92;101380.09;6318562;22;46488;-82
2022/01/06 10:34:34;;;;;;;;;10.25;10.00;;;;;21.84;43.31;101372.22;6318975;22;45799;-82
2022/01/06 10:37:00;;;;;;;;;11.00;9.50;;;;;21.80;43.02;101368.75;6320137;22;45238;-80
2022/01/06 10:39:40;;;;;;;;;10.50;10.50;;;;;21.80;43.24;101367.91;6344251;22;57638;-79
2022/01/06 10:42:13;;;;;;;;;10.75;9.25;;;;;21.85;43.40;101382.81;6318231;22;45398;-81
2022/01/06 10:44:53;;;;;;;;;14.50;11.75;;;;;21.84;43.15;101377.53;6320395;22;45386;-80
2022/01/06 10:47:33;;;;;;;;;8.75;8.50;;;;;21.82;43.67;101368.75;6318816;22;45184;-81
2022/01/06 10:50:11;;;;;;;;;9.25;8.50;;;;;21.84;43.44;101370.44;6345047;22;45516;-79
2022/01/06 10:52:39;;;;;;;;;12.00;9.25;;;;;21.78;43.56;101357.31;6346991;22;48489;-78
2022/01/06 10:55:18;;;;;;;;;12.50;10.00;;;;;21.79;43.83;101361.72;6341894;22;45368;-79
2022/01/06 10:57:59;;;;;;;;;12.00;11.00;;;;;21.81;44.06;101362.56;6318809;22;45286;-78
2022/01/06 11:00:35;;;;;;;;;13.00;10.75;;;;;21.79;43.57;101361.72;6345244;22;45167;-78
2022/01/06 11:03:22;;;;;;;;;12.75;10.50;;;;;21.80;43.80;101357.25;6345974;22;46519;-79
2022/01/06 11:05:58;;;;;;;;;10.00;9.00;;;;;21.82;43.71;101347.50;6372050;22;45300;-78
2022/01/06 11:08:28;;;;;;;;;9.50;9.00;;;;;21.80;44.50;101339.53;6345519;22;45311;-77
2022/01/06 11:13:43;;;;;;;;;12.25;12.00;;;;;21.85;43.98;101336.75;6324584;22;45459;-77
2022/01/06 11:16:16;;;;;;;;;12.25;11.75;;;;;21.80;44.50;101334.22;6320027;22;45471;-77
2022/01/06 11:18:49;;;;;;;;;10.25;9.50;;;;;21.80;44.21;101322.72;6345474;22;45419;-77